createdAt,value
2022-09-07T00:00:43.374Z,98354.09
2022-09-07T00:03:46.013Z,98352.56
2022-09-07T00:06:48.664Z,98356.09
2022-09-07T00:09:52.600Z,98352.13
2022-09-07T00:12:55.189Z,98339.44
2022-09-07T00:15:58.219Z,98337.84
2022-09-07T00:19:02.742Z,98327.94
2022-09-07T00:22:05.284Z,98336.25
2022-09-07T00:25:10.340Z,98326.78
2022-09-07T00:28:12.863Z,98318.50
2022-09-07T00:31:17.551Z,98325.28
2022-09-07T00:34:20.163Z,98327.66
2022-09-07T00:37:22.802Z,98309.81
2022-09-07T00:40:26.836Z,98295.53
2022-09-07T00:43:34.413Z,98289.59
2022-09-07T00:46:37.030Z,98295.94
2022-09-07T00:49:40.664Z,98290.03
2022-09-07T00:52:44.352Z,98274.25
2022-09-07T00:55:49.838Z,98276.16
2022-09-07T00:58:52.930Z,98261.78
2022-09-07T01:01:55.951Z,98263.34
2022-09-07T01:05:07.563Z,98257.06
2022-09-07T01:08:13.152Z,98263.47
2022-09-07T01:11:18.483Z,98256.03
2022-09-07T01:14:24.744Z,98243.75
2022-09-07T01:17:33.249Z,98247.72
2022-09-07T01:20:49.601Z,98254.84
2022-09-07T01:24:28.591Z,98256.44
2022-09-07T01:28:11.915Z,98252.47
2022-09-07T01:31:20.888Z,98255.66
2022-09-07T01:34:26.181Z,98254.06
2022-09-07T01:37:34.029Z,98267.53
2022-09-07T01:40:42.944Z,98274.69
2022-09-07T01:43:51.733Z,98282.63
2022-09-07T01:47:00.225Z,98281.03
2022-09-07T01:50:07.545Z,98285.00
2022-09-07T01:53:15.281Z,98293.66
2022-09-07T01:56:20.503Z,98291.72
2022-09-07T01:59:28.127Z,98289.34
2022-09-07T02:02:32.334Z,98290.94
2022-09-07T02:05:37.144Z,98298.09
2022-09-07T02:08:43.541Z,98298.50
2022-09-07T02:11:47.703Z,98304.81
2022-09-07T02:14:54.301Z,98307.19
2022-09-07T02:18:02.058Z,98301.63
2022-09-07T02:21:05.860Z,98308.34
2022-09-07T02:24:11.741Z,98315.09
2022-09-07T02:27:17.826Z,98311.13
2022-09-07T02:30:21.724Z,98311.13
2022-09-07T02:33:24.497Z,98321.00
2022-09-07T02:36:30.550Z,98325.75
2022-09-07T02:39:33.642Z,98319.44
2022-09-07T02:42:36.508Z,98322.19
2022-09-07T02:45:48.029Z,98335.66
2022-09-07T02:48:54.196Z,98360.97
2022-09-07T02:52:01.644Z,98382.13
2022-09-07T02:55:10.883Z,98393.69
2022-09-07T02:58:22.834Z,98379.47
2022-09-07T03:01:34.094Z,98382.63
2022-09-07T03:04:43.933Z,98369.16
2022-09-07T03:07:51.608Z,98375.47
2022-09-07T03:10:54.426Z,98378.69
2022-09-07T03:14:12.658Z,98382.63
2022-09-07T03:17:17.020Z,98388.19
2022-09-07T03:20:20.875Z,98377.84
2022-09-07T03:23:23.492Z,98381.44
2022-09-07T03:26:26.395Z,98382.19
2022-09-07T03:29:29.142Z,98368.31
2022-09-07T03:32:34.636Z,98376.13
2022-09-07T03:35:37.269Z,98360.78
2022-09-07T03:38:39.848Z,98362.28
2022-09-07T03:41:42.406Z,98367.69
2022-09-07T03:44:45.249Z,98373.94
2022-09-07T03:47:49.166Z,98375.06
2022-09-07T03:50:57.250Z,98373.75
2022-09-07T03:54:00.604Z,98370.47
2022-09-07T03:57:03.390Z,98371.56
2022-09-07T04:00:06.860Z,98362.81
2022-09-07T04:03:10.705Z,98375.03
2022-09-07T04:06:14.066Z,98383.38
2022-09-07T04:09:17.161Z,98388.91
2022-09-07T04:12:20.317Z,98390.59
2022-09-07T04:15:23.345Z,98388.25
2022-09-07T04:18:27.960Z,98378.28
2022-09-07T04:21:32.458Z,98385.66
2022-09-07T04:24:35.553Z,98390.00
2022-09-07T04:27:38.643Z,98387.91
2022-09-07T04:30:41.287Z,98389.47
2022-09-07T04:33:45.664Z,98382.53
2022-09-07T04:36:48.191Z,98394.47
2022-09-07T04:39:51.806Z,98397.22
2022-09-07T04:42:54.390Z,98392.03
2022-09-07T04:45:57.082Z,98391.91
2022-09-07T04:49:02.972Z,98377.53
2022-09-07T04:52:05.518Z,98385.25
2022-09-07T04:55:08.886Z,98379.69
2022-09-07T04:58:11.475Z,98372.53
2022-09-07T05:01:15.725Z,98383.50
2022-09-07T05:04:19.711Z,98386.75
2022-09-07T05:07:22.229Z,98386.69
2022-09-07T05:10:24.814Z,98385.84
2022-09-07T05:13:27.320Z,98392.97
2022-09-07T05:16:30.800Z,98387.00
2022-09-07T05:19:34.843Z,98396.91
2022-09-07T05:22:40.966Z,98387.06
2022-09-07T05:25:44.670Z,98382.75
2022-09-07T05:28:47.965Z,98389.06
2022-09-07T05:31:50.502Z,98371.34
2022-09-07T05:34:54.509Z,98369.50
2022-09-07T05:37:57.047Z,98375.50
2022-09-07T05:41:00.461Z,98393.44
2022-09-07T05:47:26.464Z,98412.75
2022-09-07T05:50:30.486Z,98393.94
2022-09-07T05:53:35.492Z,98397.97
2022-09-07T05:56:38.235Z,98405.97
2022-09-07T05:59:40.858Z,98404.41
2022-09-07T06:02:43.424Z,98404.84
2022-09-07T06:05:47.484Z,98402.53
2022-09-07T06:08:51.275Z,98408.56
2022-09-07T06:11:53.975Z,98413.44
2022-09-07T06:14:56.504Z,98408.41
2022-09-07T06:17:59.004Z,98416.47
2022-09-07T06:21:04.836Z,98408.88
2022-09-07T06:24:08.056Z,98398.91
2022-09-07T06:27:10.707Z,98404.91
2022-09-07T06:30:13.929Z,98403.38
2022-09-07T06:33:21.387Z,98399.41
2022-09-07T06:36:28.190Z,98404.13
2022-09-07T06:39:30.797Z,98397.75
2022-09-07T06:42:33.444Z,98396.13
2022-09-07T06:45:36.047Z,98390.56
2022-09-07T06:48:42.675Z,98388.94
2022-09-07T06:51:48.425Z,98385.19
2022-09-07T06:58:00.808Z,98407.59
2022-09-07T07:01:07.181Z,98406.34
2022-09-07T07:04:09.848Z,98409.09
2022-09-07T07:07:14.614Z,98407.72
2022-09-07T07:10:22.167Z,98405.34
2022-09-07T07:13:27.432Z,98404.56
2022-09-07T07:16:29.941Z,98405.22
2022-09-07T07:19:32.624Z,98402.38
2022-09-07T07:22:46.731Z,98407.13
2022-09-07T07:25:49.668Z,98418.63
2022-09-07T07:29:00.812Z,98415.75
2022-09-07T07:32:05.201Z,98425.69
2022-09-07T07:35:08.754Z,98433.50
2022-09-07T07:48:20.280Z,98434.94
2022-09-07T07:51:22.954Z,98439.97
2022-09-07T07:54:26.812Z,98459.31
2022-09-07T07:57:30.617Z,98438.56
2022-09-07T08:00:52.880Z,98442.25
2022-09-07T08:03:55.998Z,98444.31
2022-09-07T08:06:58.587Z,98443.41
2022-09-07T08:10:02.366Z,98454.31
2022-09-07T08:13:05.116Z,98456.81
2022-09-07T08:16:08.602Z,98455.88
2022-09-07T08:19:11.182Z,98462.81
2022-09-07T08:22:13.887Z,98467.44
2022-09-07T08:25:18.496Z,98457.19
2022-09-07T08:28:21.721Z,98456.75
2022-09-07T08:31:24.534Z,98458.03
2022-09-07T08:34:27.090Z,98464.28
2022-09-07T08:37:29.648Z,98458.81
2022-09-07T08:40:37.036Z,98471.78
2022-09-07T08:43:49.109Z,98464.38
2022-09-07T08:46:55.931Z,98458.13
2022-09-07T08:50:02.881Z,98452.50
2022-09-07T08:53:08.408Z,98450.81
2022-09-07T08:56:15.580Z,98450.34
2022-09-07T08:59:21.536Z,98455.66
2022-09-07T09:02:28.206Z,98456.81
2022-09-07T09:05:38.663Z,98447.34
2022-09-07T09:08:52.704Z,98454.22
2022-09-07T09:12:07.511Z,98452.84
2022-09-07T09:15:17.573Z,98448.81
2022-09-07T09:18:31.392Z,98442.59
2022-09-07T09:21:35.644Z,98436.84
2022-09-07T09:24:39.787Z,98437.72
2022-09-07T09:27:43.822Z,98434.56
2022-09-07T09:30:47.728Z,98437.69
2022-09-07T09:34:11.706Z,98428.66
2022-09-07T09:37:14.350Z,98422.44
2022-09-07T09:40:26.082Z,98419.09
2022-09-07T09:43:35.524Z,98419.75
2022-09-07T09:46:38.841Z,98433.75
2022-09-07T09:49:41.658Z,98427.47
2022-09-07T09:52:51.441Z,98419.88
2022-09-07T09:55:55.102Z,98426.59
2022-09-07T10:05:58.318Z,98408.66
2022-09-07T10:09:01.821Z,98396.03
2022-09-07T10:12:06.266Z,98399.06
2022-09-07T10:15:27.140Z,98402.28
2022-09-07T10:18:33.672Z,98388.69
2022-09-07T10:21:36.201Z,98380.66
2022-09-07T10:24:41.396Z,98383.91
2022-09-07T10:27:46.683Z,98382.84
2022-09-07T10:31:11.009Z,98386.19
2022-09-07T10:34:27.217Z,98377.84
2022-09-07T10:37:37.553Z,98381.50
2022-09-07T10:40:43.420Z,98380.34
2022-09-07T10:43:47.291Z,98364.94
2022-09-07T10:46:57.681Z,98375.19
2022-09-07T10:53:41.897Z,98366.03
2022-09-07T10:56:52.950Z,98364.69
2022-09-07T11:00:09.278Z,98364.00
2022-09-07T11:03:32.944Z,98359.44
2022-09-07T11:06:40.048Z,98361.72
2022-09-07T11:09:50.184Z,98358.38
2022-09-07T11:12:55.217Z,98354.97
2022-09-07T11:16:00.368Z,98358.94
2022-09-07T11:22:34.341Z,98344.72
2022-09-07T11:25:42.086Z,98347.78
2022-09-07T11:28:47.160Z,98342.16
2022-09-07T11:31:52.279Z,98341.25
2022-09-07T11:34:59.924Z,98337.28
2022-09-07T11:38:06.484Z,98335.81
2022-09-07T11:41:19.835Z,98328.28
2022-09-07T11:44:25.208Z,98324.25
2022-09-07T11:47:30.988Z,98324.47
2022-09-07T11:50:38.421Z,98322.69
2022-09-07T11:53:45.311Z,98321.75
2022-09-07T11:56:51.866Z,98320.25
2022-09-07T12:00:02.587Z,98307.50
2022-09-07T12:03:23.627Z,98307.81
2022-09-07T12:06:43.513Z,98307.50
2022-09-07T12:09:56.572Z,98300.63
2022-09-07T12:13:14.345Z,98301.78
2022-09-07T12:16:22.408Z,98299.88
2022-09-07T12:19:26.537Z,98294.28
2022-09-07T12:22:30.423Z,98288.56
2022-09-07T12:25:33.756Z,98282.78
2022-09-07T12:29:05.561Z,98287.41
2022-09-07T12:35:38.770Z,98285.50
2022-09-07T12:39:24.752Z,98289.38
2022-09-07T12:42:34.323Z,98280.34
2022-09-07T12:45:51.670Z,98259.50
2022-09-07T12:48:59.728Z,98273.91
2022-09-07T12:52:16.016Z,98272.16
2022-09-07T12:59:44.329Z,98275.91
2022-09-07T13:03:04.315Z,98269.94
2022-09-07T13:06:17.264Z,98262.22
2022-09-07T13:09:31.488Z,98261.28
2022-09-07T13:12:53.684Z,98257.25
2022-09-07T13:16:30.051Z,98250.00
2022-09-07T13:20:08.962Z,98246.72
2022-09-07T13:23:29.531Z,98244.13
2022-09-07T13:26:54.889Z,98238.56
2022-09-07T13:29:59.858Z,98232.00
2022-09-07T13:33:50.576Z,98231.84
2022-09-07T13:36:54.451Z,98227.19
2022-09-07T13:39:58.430Z,98223.38
2022-09-07T13:43:01.908Z,98209.56
2022-09-07T13:46:09.290Z,98209.28
2022-09-07T13:49:20.264Z,98199.47
2022-09-07T13:52:32.160Z,98193.44
2022-09-07T13:55:38.719Z,98186.19
2022-09-07T13:58:42.588Z,98182.06
2022-09-07T14:01:47.159Z,98185.28
2022-09-07T14:04:51.696Z,98182.56
2022-09-07T14:07:55.477Z,98181.44
2022-09-07T14:10:58.001Z,98187.63
2022-09-07T14:14:24.716Z,98171.22
2022-09-07T14:17:29.007Z,98166.38
2022-09-07T14:20:32.323Z,98181.09
2022-09-07T14:23:38.840Z,98181.59
2022-09-07T14:26:46.746Z,98169.47
2022-09-07T14:29:49.506Z,98174.75
2022-09-07T14:32:53.693Z,98174.38
2022-09-07T14:35:57.209Z,98162.03
2022-09-07T14:39:04.980Z,98165.13
2022-09-07T14:42:08.007Z,98157.84
2022-09-07T14:45:18.337Z,98161.50
2022-09-07T14:48:31.508Z,98155.66
2022-09-07T14:51:36.958Z,98152.47
2022-09-07T14:54:40.975Z,98146.81
2022-09-07T14:57:43.444Z,98141.66
2022-09-07T15:00:46.558Z,98142.00
2022-09-07T15:03:55.058Z,98143.47
2022-09-07T15:07:04.557Z,98146.34
2022-09-07T15:10:15.893Z,98146.66
2022-09-07T15:13:24.923Z,98140.75
2022-09-07T15:16:28.800Z,98129.78
2022-09-07T15:19:35.101Z,98138.66
2022-09-07T15:22:37.541Z,98135.63
2022-09-07T15:25:46.531Z,98137.69
2022-09-07T15:32:13.173Z,98137.97
2022-09-07T15:35:16.007Z,98140.00
2022-09-07T15:41:42.953Z,98128.94
2022-09-07T15:44:45.488Z,98127.88
2022-09-07T15:47:52.475Z,98132.19
2022-09-07T15:51:02.567Z,98145.09
2022-09-07T15:54:12.912Z,98143.34
2022-09-07T16:00:40.259Z,98135.09
2022-09-07T16:03:42.823Z,98127.28
2022-09-07T16:06:48.141Z,98128.78
2022-09-07T16:09:52.453Z,98113.72
2022-09-07T16:13:10.475Z,98113.47
2022-09-07T16:16:15.757Z,98101.75
2022-09-07T16:19:21.522Z,98101.09
2022-09-07T16:25:56.576Z,98099.84
2022-09-07T16:29:01.528Z,98097.69
2022-09-07T16:35:27.414Z,98092.53
2022-09-07T16:38:47.298Z,98096.84
2022-09-07T16:41:50.007Z,98107.66
2022-09-07T16:44:53.922Z,98110.06
2022-09-07T16:47:56.851Z,98114.81
2022-09-07T16:51:02.346Z,98116.13
2022-09-07T16:54:06.155Z,98108.16
2022-09-07T16:57:08.814Z,98101.41
2022-09-07T17:00:13.430Z,98109.22
2022-09-07T17:03:15.921Z,98108.88
2022-09-07T17:06:20.257Z,98112.97
2022-09-07T17:09:26.576Z,98115.88
2022-09-07T17:12:29.386Z,98108.78
2022-09-07T17:15:34.819Z,98106.53
2022-09-07T17:22:00.868Z,98106.50
2022-09-07T17:25:03.431Z,98102.91
2022-09-07T17:28:05.956Z,98101.47
2022-09-07T17:31:11.690Z,98098.13
2022-09-07T17:34:33.823Z,98100.31
2022-09-07T17:37:36.313Z,98115.59
2022-09-07T17:40:39.026Z,98119.28
2022-09-07T17:43:45.239Z,98122.25
2022-09-07T17:46:49.627Z,98132.00
2022-09-07T17:49:52.148Z,98139.88
2022-09-07T17:52:54.639Z,98146.59
2022-09-07T17:55:57.179Z,98153.41
2022-09-07T18:02:24.154Z,98140.72
2022-09-07T18:05:26.722Z,98144.03
2022-09-07T18:08:29.333Z,98164.38
2022-09-07T18:11:49.087Z,98173.09
2022-09-07T18:14:52.112Z,98183.22
2022-09-07T18:17:57.084Z,98175.22
2022-09-07T18:20:59.651Z,98158.81
2022-09-07T18:24:04.801Z,98143.69
2022-09-07T18:27:07.919Z,98122.34
2022-09-07T18:30:11.257Z,98121.84
2022-09-07T18:33:15.497Z,98134.44
2022-09-07T18:36:18.127Z,98127.25
2022-09-07T18:39:20.752Z,98125.06
2022-09-07T18:42:23.337Z,98120.34
2022-09-07T18:45:27.526Z,98137.66
2022-09-07T18:48:32.061Z,98158.22
2022-09-07T18:52:51.767Z,98171.56
2022-09-07T18:54:57.023Z,98181.84
2022-09-07T18:58:01.402Z,98187.38
2022-09-07T19:01:05.068Z,98163.56
2022-09-07T19:04:09.095Z,98155.66
2022-09-07T19:07:12.104Z,98157.28
2022-09-07T19:10:16.695Z,98167.97
2022-09-07T19:13:19.253Z,98161.63
2022-09-07T19:16:21.848Z,98148.16
2022-09-07T19:19:26.643Z,98158.56
2022-09-07T19:22:29.563Z,98160.53
2022-09-07T19:25:32.101Z,98165.41
2022-09-07T19:28:35.501Z,98160.66
2022-09-07T19:31:38.278Z,98178.19
2022-09-07T19:34:43.310Z,98177.41
2022-09-07T19:37:45.868Z,98171.84
2022-09-07T19:40:56.260Z,98175.06
2022-09-07T19:43:59.012Z,98163.94
2022-09-07T19:47:01.911Z,98154.50
2022-09-07T19:50:06.249Z,98140.59
2022-09-07T19:53:08.738Z,98149.06
2022-09-07T19:56:13.744Z,98149.97
2022-09-07T19:59:19.230Z,98158.69
2022-09-07T20:02:21.685Z,98148.06
2022-09-07T20:05:29.399Z,98141.31
2022-09-07T20:08:31.912Z,98143.31
2022-09-07T20:11:35.818Z,98129.84
2022-09-07T20:14:38.322Z,98125.13
2022-09-07T20:17:40.782Z,98120.41
2022-09-07T20:20:44.763Z,98113.31
2022-09-07T20:23:47.369Z,98112.09
2022-09-07T20:26:50.163Z,98106.59
2022-09-07T20:29:53.155Z,98100.31
2022-09-07T20:32:55.720Z,98095.59
2022-09-07T20:36:04.528Z,98097.19
2022-09-07T20:39:07.175Z,98094.84
2022-09-07T20:42:09.635Z,98082.94
2022-09-07T20:45:12.251Z,98079.00
2022-09-07T20:48:15.205Z,98078.22
2022-09-07T20:51:21.143Z,98075.84
2022-09-07T20:54:23.823Z,98073.09
2022-09-07T20:57:26.530Z,98073.47
2022-09-07T21:00:29.377Z,98075.47
2022-09-07T21:03:32.152Z,98075.47
2022-09-07T21:06:36.270Z,98079.84
2022-09-07T21:09:38.839Z,98079.09
2022-09-07T21:12:41.431Z,98081.88
2022-09-07T21:15:45.388Z,98075.53
2022-09-07T21:18:48.182Z,98094.16
2022-09-07T21:21:52.007Z,98099.69
2022-09-07T21:24:54.549Z,98102.06
2022-09-07T21:27:57.012Z,98102.06
2022-09-07T21:31:00.507Z,98108.41
2022-09-07T21:34:03.624Z,98104.00
2022-09-07T21:37:07.359Z,98103.19
2022-09-07T21:40:10.243Z,98094.88
2022-09-07T21:43:12.853Z,98091.69
2022-09-07T21:46:17.433Z,98096.81
2022-09-07T21:49:20.101Z,98091.69
2022-09-07T21:52:24.018Z,98100.41
2022-09-07T21:55:26.682Z,98105.16
2022-09-07T21:58:30.138Z,98109.53
2022-09-07T22:01:33.257Z,98105.16
2022-09-07T22:04:35.760Z,98096.03
2022-09-07T22:07:39.683Z,98086.91
2022-09-07T22:10:42.829Z,98084.56
2022-09-07T22:13:45.651Z,98071.84
2022-09-07T22:16:48.214Z,98065.50
2022-09-07T22:19:50.681Z,98058.41
2022-09-07T22:22:54.663Z,98050.47
2022-09-07T22:25:57.225Z,98045.69
2022-09-07T22:29:00.177Z,98045.28
2022-09-07T22:32:03.043Z,98039.78
2022-09-07T22:35:06.467Z,98041.34
2022-09-07T22:38:10.248Z,98026.31
2022-09-07T22:41:13.989Z,98027.53
2022-09-07T22:44:18.031Z,98016.00
2022-09-07T22:47:20.881Z,98021.19
2022-09-07T22:50:23.398Z,98017.63
2022-09-07T22:53:27.645Z,98017.22
2022-09-07T22:56:32.311Z,98007.28
2022-09-07T22:59:35.076Z,97997.31
2022-09-07T23:02:37.657Z,98001.28
2022-09-07T23:05:40.247Z,98013.97
2022-09-07T23:08:44.287Z,98015.66
2022-09-07T23:11:47.732Z,98020.44
2022-09-07T23:14:50.440Z,98019.63
2022-09-07T23:17:52.935Z,98013.31
2022-09-07T23:21:00.605Z,98007.00
2022-09-07T23:24:05.090Z,97998.31
2022-09-07T23:27:07.538Z,97999.13
2022-09-07T23:30:11.617Z,97988.81
2022-09-07T23:33:14.239Z,97991.59
2022-09-07T23:36:17.269Z,97977.31
2022-09-07T23:39:22.043Z,97971.41
2022-09-07T23:42:24.570Z,97963.91
2022-09-07T23:45:27.230Z,97961.91
2022-09-07T23:48:29.969Z,97961.16
2022-09-07T23:51:32.446Z,97963.13
2022-09-07T23:54:36.398Z,97960.38
2022-09-07T23:57:39.504Z,97959.59
